METAR Data
IDs: Format: Raw Decoded Include TAF

Data at: 0253 UTC 19 Feb 2019

METAR for:VTUK (Khon Kaen Arpt, --, TH)
Text:VTUK 190200Z 26003KT 230V320 5000 HZ FEW035 27/19 Q1015 NOSIG
Temperature: 27.0°C ( 81°F)
Dewpoint: 19.0°C ( 66°F) [RH = 62%]
Pressure (altimeter):29.97 inches Hg (1015.0 mb)
Winds:from the W (260 degrees) at 3 MPH (3 knots; 1.5 m/s)
Visibility: 3 sm ( 5 km)
Ceiling:at least 12,000 feet AGL
Clouds: few clouds at 3500 feet AGL
Weather:HZ (haze)
Text:VTUK 190100Z VRB02KT 4000 BR NSC 24/20 Q1014 NPSIG
Temperature: 24.0°C ( 75°F)
Dewpoint: 20.0°C ( 68°F) [RH = 78%]
Pressure (altimeter):29.94 inches Hg (1014.0 mb)
Winds:variable direction winds at 2 MPH (2 knots; 1.0 m/s)
Visibility: 2.49 sm ( 4.01 km)
Ceiling:at least 12,000 feet AGL
Clouds:sky clear below 12,000 feet AGL
Weather:BR (mist)
Text:VTUK 190000Z 00000KT 7000 NSC 21/19 Q1013 NOSIG
Temperature: 21.0°C ( 70°F)
Dewpoint: 19.0°C ( 66°F) [RH = 88%]
Pressure (altimeter):29.91 inches Hg (1013.0 mb)
Winds:calm
Visibility: 4 sm ( 7 km)
Ceiling:at least 12,000 feet AGL
Clouds:sky clear below 12,000 feet AGL

METAR for:VTUD (Udon Thani Arpt, --, TH)
Text:VTUD 190200Z 09003KT 050V110 5000 BR NSC 25/21 Q1015 NOSIG
Temperature: 25.0°C ( 77°F)
Dewpoint: 21.0°C ( 70°F) [RH = 79%]
Pressure (altimeter):29.97 inches Hg (1015.0 mb)
Winds:from the E (90 degrees) at 3 MPH (3 knots; 1.5 m/s)
Visibility: 3 sm ( 5 km)
Ceiling:at least 12,000 feet AGL
Clouds:sky clear below 12,000 feet AGL
Weather:BR (mist)
Text:VTUD 190100Z VRB01KT 3000 BR NSC 22/21 Q1014 BECMG TL0200 4000 BR
Temperature: 22.0°C ( 72°F)
Dewpoint: 21.0°C ( 70°F) [RH = 94%]
Pressure (altimeter):29.94 inches Hg (1014.0 mb)
Winds:variable direction winds at 1 MPH (1 knots; 0.5 m/s)
Visibility: 1.86 sm ( 2.99 km)
Ceiling:at least 12,000 feet AGL
Clouds:sky clear below 12,000 feet AGL
Weather:BR (mist)
Text:VTUD 190000Z 31002KT 0800 R30/P2000N R12/P2000N FG NSC 20/20 Q1013 NOSIG
Temperature: 20.0°C ( 68°F)
Dewpoint: 20.0°C ( 68°F) [RH = 100%]
Pressure (altimeter):29.91 inches Hg (1013.0 mb)
Winds:from the NW (310 degrees) at 2 MPH (2 knots; 1.0 m/s)
Visibility: 0.50 sm ( 0.80 km)
Ceiling:at least 12,000 feet AGL
Clouds:sky clear below 12,000 feet AGL
Weather:FG (fog)

METAR for:VTUL (Loei Arpt, --, TH)
Text:VTUL 190200Z VRB02KT CAVOK 22/18 Q1015 NOSIG
Temperature: 22.0°C ( 72°F)
Dewpoint: 18.0°C ( 64°F) [RH = 78%]
Pressure (altimeter):29.97 inches Hg (1015.0 mb)
Winds:variable direction winds at 2 MPH (2 knots; 1.0 m/s)
Visibility:6 or more sm (10+ km)
Ceiling:ceiling and visibility are OK
Clouds:unknown
Text:VTUL 190100Z 00000KT CAVOK 18/16 Q1015 NOSIG
Temperature: 18.0°C ( 64°F)
Dewpoint: 16.0°C ( 61°F) [RH = 88%]
Pressure (altimeter):29.97 inches Hg (1015.0 mb)
Winds:calm
Visibility:6 or more sm (10+ km)
Ceiling:ceiling and visibility are OK
Clouds:unknown
Text:VTUL 190000Z 00000KT CAVOK 15/15 Q1014 NOSIG
Temperature: 15.0°C ( 59°F)
Dewpoint: 15.0°C ( 59°F) [RH = 100%]
Pressure (altimeter):29.94 inches Hg (1014.0 mb)
Winds:calm
Visibility:6 or more sm (10+ km)
Ceiling:ceiling and visibility are OK
Clouds:unknown

METAR for:VTUI (Sakon Nakhon Arpt, --, TH)
Text:VTUI 190200Z 00000KT 5000 BR NSC 27/22 Q1014 NOSIG
Temperature: 27.0°C ( 81°F)
Dewpoint: 22.0°C ( 72°F) [RH = 74%]
Pressure (altimeter):29.94 inches Hg (1014.0 mb)
Winds:calm
Visibility: 3 sm ( 5 km)
Ceiling:at least 12,000 feet AGL
Clouds:sky clear below 12,000 feet AGL
Weather:BR (mist)
Text:VTUI 190100Z 00000KT 3000 BR NSC 23/22 Q1013 BECMG TL0300 5000 BR
Temperature: 23.0°C ( 73°F)
Dewpoint: 22.0°C ( 72°F) [RH = 94%]
Pressure (altimeter):29.91 inches Hg (1013.0 mb)
Winds:calm
Visibility: 1.86 sm ( 2.99 km)
Ceiling:at least 12,000 feet AGL
Clouds:sky clear below 12,000 feet AGL
Weather:BR (mist)
Text:VTUI 190000Z 31002KT 1800 BR NSC 22/21 Q1012 BECMG TL0100 3000 BR
Temperature: 22.0°C ( 72°F)
Dewpoint: 21.0°C ( 70°F) [RH = 94%]
Pressure (altimeter):29.88 inches Hg (1012.0 mb)
Winds:from the NW (310 degrees) at 2 MPH (2 knots; 1.0 m/s)
Visibility: 1.12 sm ( 1.80 km)
Ceiling:at least 12,000 feet AGL
Clouds:sky clear below 12,000 feet AGL
Weather:BR (mist)

METAR for:VTUW (Nakhon Phanom Arpt, --, TH)
Text:VTUW 190200Z 13007KT 5000 BR NSC 27/22 Q1014 BECMG TL0300 8000 NSW
Temperature: 27.0°C ( 81°F)
Dewpoint: 22.0°C ( 72°F) [RH = 74%]
Pressure (altimeter):29.94 inches Hg (1014.0 mb)
Winds:from the SE (130 degrees) at 8 MPH (7 knots; 3.6 m/s)
Visibility: 3 sm ( 5 km)
Ceiling:at least 12,000 feet AGL
Clouds:sky clear below 12,000 feet AGL
Weather:BR (mist)
Text:VTUW 190100Z 12004KT 3000 BR NSC 24/22 Q1013 BECMG TL0200 5000 BR
Temperature: 24.0°C ( 75°F)
Dewpoint: 22.0°C ( 72°F) [RH = 89%]
Pressure (altimeter):29.91 inches Hg (1013.0 mb)
Winds:from the ESE (120 degrees) at 5 MPH (4 knots; 2.1 m/s)
Visibility: 1.86 sm ( 2.99 km)
Ceiling:at least 12,000 feet AGL
Clouds:sky clear below 12,000 feet AGL
Weather:BR (mist)

METAR for:VTBS (Bangkok/Suvarnabhumi, --, TH)
Text:VTBS 190230Z 19010KT 160V230 9999 SCT020 29/23 Q1015 NOSIG
Temperature: 29.0°C ( 84°F)
Dewpoint: 23.0°C ( 73°F) [RH = 70%]
Pressure (altimeter):29.97 inches Hg (1015.0 mb)
Winds:from the S (190 degrees) at 12 MPH (10 knots; 5.1 m/s)
Visibility:6 or more sm (10+ km)
Ceiling:at least 12,000 feet AGL
Clouds: scattered clouds at 2000 feet AGL
Text:VTBS 190200Z 15007KT 100V190 9999 SCT020 28/24 Q1014 NOSIG
Temperature: 28.0°C ( 82°F)
Dewpoint: 24.0°C ( 75°F) [RH = 79%]
Pressure (altimeter):29.94 inches Hg (1014.0 mb)
Winds:from the SSE (150 degrees) at 8 MPH (7 knots; 3.6 m/s)
Visibility:6 or more sm (10+ km)
Ceiling:at least 12,000 feet AGL
Clouds: scattered clouds at 2000 feet AGL
Text:VTBS 190130Z 14007KT 110V200 9999 SCT020 28/24 Q1013 NOSIG
Temperature: 28.0°C ( 82°F)
Dewpoint: 24.0°C ( 75°F) [RH = 79%]
Pressure (altimeter):29.91 inches Hg (1013.0 mb)
Winds:from the SE (140 degrees) at 8 MPH (7 knots; 3.6 m/s)
Visibility:6 or more sm (10+ km)
Ceiling:at least 12,000 feet AGL
Clouds: scattered clouds at 2000 feet AGL
Text:VTBS 190100Z 13006KT 090V180 9999 FEW020 27/24 Q1013 NOSIG
Temperature: 27.0°C ( 81°F)
Dewpoint: 24.0°C ( 75°F) [RH = 84%]
Pressure (altimeter):29.91 inches Hg (1013.0 mb)
Winds:from the SE (130 degrees) at 7 MPH (6 knots; 3.1 m/s)
Visibility:6 or more sm (10+ km)
Ceiling:at least 12,000 feet AGL
Clouds: few clouds at 2000 feet AGL
Text:VTBS 190030Z 12005KT 090V160 9999 FEW020 26/23 Q1013 NOSIG
Temperature: 26.0°C ( 79°F)
Dewpoint: 23.0°C ( 73°F) [RH = 84%]
Pressure (altimeter):29.91 inches Hg (1013.0 mb)
Winds:from the ESE (120 degrees) at 6 MPH (5 knots; 2.6 m/s)
Visibility:6 or more sm (10+ km)
Ceiling:at least 12,000 feet AGL
Clouds: few clouds at 2000 feet AGL
Text:VTBS 190000Z 13007KT 100V170 9999 FEW020 26/23 Q1012 NOSIG
Temperature: 26.0°C ( 79°F)
Dewpoint: 23.0°C ( 73°F) [RH = 84%]
Pressure (altimeter):29.88 inches Hg (1012.0 mb)
Winds:from the SE (130 degrees) at 8 MPH (7 knots; 3.6 m/s)
Visibility:6 or more sm (10+ km)
Ceiling:at least 12,000 feet AGL
Clouds: few clouds at 2000 feet AGL

METAR for:VTBD (Bangkok Intl, --, TH)
Text:VTBD 190230Z 15007KT 120V190 9000 FEW020 30/24 Q1015 NOSIG
Temperature: 30.0°C ( 86°F)
Dewpoint: 24.0°C ( 75°F) [RH = 70%]
Pressure (altimeter):29.97 inches Hg (1015.0 mb)
Winds:from the SSE (150 degrees) at 8 MPH (7 knots; 3.6 m/s)
Visibility: 6 sm ( 9 km)
Ceiling:at least 12,000 feet AGL
Clouds: few clouds at 2000 feet AGL
Text:VTBD 190200Z 13005KT 090V160 9000 FEW020 28/24 Q1014 NOSIG
Temperature: 28.0°C ( 82°F)
Dewpoint: 24.0°C ( 75°F) [RH = 79%]
Pressure (altimeter):29.94 inches Hg (1014.0 mb)
Winds:from the SE (130 degrees) at 6 MPH (5 knots; 2.6 m/s)
Visibility: 6 sm ( 9 km)
Ceiling:at least 12,000 feet AGL
Clouds: few clouds at 2000 feet AGL
Text:VTBD 190130Z 11005KT 070V150 9000 FEW020 27/24 Q1014 NOSIG
Temperature: 27.0°C ( 81°F)
Dewpoint: 24.0°C ( 75°F) [RH = 84%]
Pressure (altimeter):29.94 inches Hg (1014.0 mb)
Winds:from the ESE (110 degrees) at 6 MPH (5 knots; 2.6 m/s)
Visibility: 6 sm ( 9 km)
Ceiling:at least 12,000 feet AGL
Clouds: few clouds at 2000 feet AGL
Text:VTBD 190100Z 12006KT 9999 FEW020 25/24 Q1013 NOSIG
Temperature: 25.0°C ( 77°F)
Dewpoint: 24.0°C ( 75°F) [RH = 94%]
Pressure (altimeter):29.91 inches Hg (1013.0 mb)
Winds:from the ESE (120 degrees) at 7 MPH (6 knots; 3.1 m/s)
Visibility:6 or more sm (10+ km)
Ceiling:at least 12,000 feet AGL
Clouds: few clouds at 2000 feet AGL
Text:VTBD 190030Z 12006KT 9999 FEW020 25/24 Q1013 NOSIG
Temperature: 25.0°C ( 77°F)
Dewpoint: 24.0°C ( 75°F) [RH = 94%]
Pressure (altimeter):29.91 inches Hg (1013.0 mb)
Winds:from the ESE (120 degrees) at 7 MPH (6 knots; 3.1 m/s)
Visibility:6 or more sm (10+ km)
Ceiling:at least 12,000 feet AGL
Clouds: few clouds at 2000 feet AGL
Text:VTBD 190000Z 11005KT 9999 FEW020 24/23 Q1013 NOSIG
Temperature: 24.0°C ( 75°F)
Dewpoint: 23.0°C ( 73°F) [RH = 94%]
Pressure (altimeter):29.91 inches Hg (1013.0 mb)
Winds:from the ESE (110 degrees) at 6 MPH (5 knots; 2.6 m/s)
Visibility:6 or more sm (10+ km)
Ceiling:at least 12,000 feet AGL
Clouds: few clouds at 2000 feet AGL